EIIH weather

Midland Heliport
Abbeyleix, County Laois, Ireland

Public forecast

Using degrees Celsius for public forecast. Weather courtesy of forecast.io.

METAR (pilot weather report)

Closest report is Casement Air Base, 38.2 nm (70.8 km) NE. Retrieved 2019/06/27 11:30 UTC (0 seconds ago):

EIME 271130Z 09016KT CAVOK 17/09 Q1029

TAF (pilot weather forecast)

Closest forecast is Dublin Airport, 47.8 nm (88.6 km) NE. Retrieved 2019/06/27 06:09 UTC (5 hours ago):

TAF EIDW 270500Z 2706/2806 06012KT 9999 FEW022 PROB30 TEMPO 2714/2720 07014G25KT BECMG 2720/2722 09014G25KT BECMG 2722/2724 09012KT